sensor_id;sensor_type;location;lat;lon;timestamp;P1;durP1;ratioP1;P2;durP2;ratioP2
4756;SDS011;2392;52.578;13.426;2023-03-19T00:00:02;25.80;;;17.60;;
4756;SDS011;2392;52.578;13.426;2023-03-19T00:02:32;26.37;;;18.10;;
4756;SDS011;2392;52.578;13.426;2023-03-19T00:05:00;24.90;;;17.27;;
4756;SDS011;2392;52.578;13.426;2023-03-19T00:07:27;25.53;;;18.13;;
4756;SDS011;2392;52.578;13.426;2023-03-19T00:09:54;27.23;;;17.10;;
4756;SDS011;2392;52.578;13.426;2023-03-19T00:12:21;26.13;;;16.87;;
4756;SDS011;2392;52.578;13.426;2023-03-19T00:14:48;22.70;;;17.50;;
4756;SDS011;2392;52.578;13.426;2023-03-19T00:17:17;20.47;;;16.70;;
4756;SDS011;2392;52.578;13.426;2023-03-19T00:19:44;26.33;;;17.70;;
4756;SDS011;2392;52.578;13.426;2023-03-19T00:22:11;25.10;;;17.40;;
4756;SDS011;2392;52.578;13.426;2023-03-19T00:24:38;24.03;;;15.30;;
4756;SDS011;2392;52.578;13.426;2023-03-19T00:27:05;20.80;;;16.33;;
4756;SDS011;2392;52.578;13.426;2023-03-19T00:29:32;26.03;;;17.87;;
4756;SDS011;2392;52.578;13.426;2023-03-19T00:31:59;22.43;;;15.80;;
4756;SDS011;2392;52.578;13.426;2023-03-19T00:34:27;20.07;;;15.07;;
4756;SDS011;2392;52.578;13.426;2023-03-19T00:36:54;23.80;;;15.47;;
4756;SDS011;2392;52.578;13.426;2023-03-19T00:39:21;27.00;;;15.40;;
4756;SDS011;2392;52.578;13.426;2023-03-19T00:41:48;21.53;;;15.20;;
4756;SDS011;2392;52.578;13.426;2023-03-19T00:44:16;23.93;;;15.73;;
4756;SDS011;2392;52.578;13.426;2023-03-19T00:46:43;20.43;;;15.53;;
4756;SDS011;2392;52.578;13.426;2023-03-19T00:49:11;20.50;;;14.10;;
4756;SDS011;2392;52.578;13.426;2023-03-19T00:51:39;17.43;;;14.87;;
4756;SDS011;2392;52.578;13.426;2023-03-19T00:54:08;17.50;;;13.87;;
4756;SDS011;2392;52.578;13.426;2023-03-19T00:56:36;23.93;;;14.80;;
4756;SDS011;2392;52.578;13.426;2023-03-19T00:59:03;23.70;;;14.20;;
4756;SDS011;2392;52.578;13.426;2023-03-19T01:01:30;18.20;;;14.87;;
4756;SDS011;2392;52.578;13.426;2023-03-19T01:03:59;21.80;;;15.23;;
4756;SDS011;2392;52.578;13.426;2023-03-19T01:06:26;22.37;;;15.43;;
4756;SDS011;2392;52.578;13.426;2023-03-19T01:08:55;16.40;;;13.53;;
4756;SDS011;2392;52.578;13.426;2023-03-19T01:11:23;24.13;;;15.10;;
4756;SDS011;2392;52.578;13.426;2023-03-19T01:13:50;23.60;;;15.00;;
4756;SDS011;2392;52.578;13.426;2023-03-19T01:16:18;26.63;;;15.27;;
4756;SDS011;2392;52.578;13.426;2023-03-19T01:18:44;22.70;;;13.77;;
4756;SDS011;2392;52.578;13.426;2023-03-19T01:21:12;22.30;;;15.53;;
4756;SDS011;2392;52.578;13.426;2023-03-19T01:23:44;21.70;;;15.07;;
4756;SDS011;2392;52.578;13.426;2023-03-19T01:26:12;23.37;;;15.93;;
4756;SDS011;2392;52.578;13.426;2023-03-19T01:28:40;27.30;;;15.43;;
4756;SDS011;2392;52.578;13.426;2023-03-19T01:31:08;20.90;;;15.27;;
4756;SDS011;2392;52.578;13.426;2023-03-19T01:33:54;19.47;;;14.90;;
4756;SDS011;2392;52.578;13.426;2023-03-19T01:36:35;21.60;;;14.13;;
4756;SDS011;2392;52.578;13.426;2023-03-19T01:39:04;24.40;;;14.67;;
4756;SDS011;2392;52.578;13.426;2023-03-19T01:41:33;20.47;;;13.50;;
4756;SDS011;2392;52.578;13.426;2023-03-19T01:44:24;17.20;;;13.87;;
4756;SDS011;2392;52.578;13.426;2023-03-19T01:47:29;18.40;;;13.43;;
4756;SDS011;2392;52.578;13.426;2023-03-19T01:50:11;18.03;;;13.70;;
4756;SDS011;2392;52.578;13.426;2023-03-19T01:53:00;15.53;;;13.20;;
4756;SDS011;2392;52.578;13.426;2023-03-19T01:55:45;22.53;;;13.00;;
4756;SDS011;2392;52.578;13.426;2023-03-19T01:58:31;16.03;;;12.20;;
4756;SDS011;2392;52.578;13.426;2023-03-19T02:01:16;19.60;;;12.73;;
4756;SDS011;2392;52.578;13.426;2023-03-19T02:03:47;16.80;;;12.27;;
4756;SDS011;2392;52.578;13.426;2023-03-19T02:06:22;19.60;;;13.67;;
4756;SDS011;2392;52.578;13.426;2023-03-19T02:08:49;17.90;;;13.23;;
4756;SDS011;2392;52.578;13.426;2023-03-19T02:11:17;22.00;;;13.30;;
4756;SDS011;2392;52.578;13.426;2023-03-19T02:13:47;17.27;;;13.23;;
4756;SDS011;2392;52.578;13.426;2023-03-19T02:16:15;18.37;;;12.97;;
4756;SDS011;2392;52.578;13.426;2023-03-19T02:18:42;20.47;;;14.80;;
4756;SDS011;2392;52.578;13.426;2023-03-19T02:21:12;17.53;;;13.17;;
4756;SDS011;2392;52.578;13.426;2023-03-19T02:23:44;18.50;;;14.00;;
4756;SDS011;2392;52.578;13.426;2023-03-19T02:26:23;22.93;;;13.57;;
4756;SDS011;2392;52.578;13.426;2023-03-19T02:28:58;16.87;;;12.50;;
4756;SDS011;2392;52.578;13.426;2023-03-19T02:31:30;18.77;;;13.33;;
4756;SDS011;2392;52.578;13.426;2023-03-19T02:33:58;21.83;;;12.10;;
4756;SDS011;2392;52.578;13.426;2023-03-19T02:36:26;21.97;;;12.13;;
4756;SDS011;2392;52.578;13.426;2023-03-19T02:38:57;16.73;;;12.70;;
4756;SDS011;2392;52.578;13.426;2023-03-19T02:41:29;17.87;;;12.93;;
4756;SDS011;2392;52.578;13.426;2023-03-19T02:43:58;19.50;;;13.07;;
4756;SDS011;2392;52.578;13.426;2023-03-19T02:46:29;23.77;;;14.00;;
4756;SDS011;2392;52.578;13.426;2023-03-19T02:48:56;21.00;;;13.93;;
4756;SDS011;2392;52.578;13.426;2023-03-19T02:51:23;20.03;;;14.57;;
4756;SDS011;2392;52.578;13.426;2023-03-19T02:53:51;22.07;;;15.53;;
4756;SDS011;2392;52.578;13.426;2023-03-19T02:56:18;21.80;;;14.93;;
4756;SDS011;2392;52.578;13.426;2023-03-19T02:58:46;21.73;;;15.17;;
4756;SDS011;2392;52.578;13.426;2023-03-19T03:01:13;23.30;;;14.43;;
4756;SDS011;2392;52.578;13.426;2023-03-19T03:03:40;21.17;;;14.30;;
4756;SDS011;2392;52.578;13.426;2023-03-19T03:06:08;24.03;;;14.23;;
4756;SDS011;2392;52.578;13.426;2023-03-19T03:08:35;20.83;;;14.03;;
4756;SDS011;2392;52.578;13.426;2023-03-19T03:11:02;22.07;;;13.83;;
4756;SDS011;2392;52.578;13.426;2023-03-19T03:13:29;19.03;;;13.17;;
4756;SDS011;2392;52.578;13.426;2023-03-19T03:15:57;16.97;;;11.80;;
4756;SDS011;2392;52.578;13.426;2023-03-19T03:18:24;18.57;;;11.60;;
4756;SDS011;2392;52.578;13.426;2023-03-19T03:20:51;14.87;;;11.33;;
4756;SDS011;2392;52.578;13.426;2023-03-19T03:23:18;16.27;;;11.50;;
4756;SDS011;2392;52.578;13.426;2023-03-19T03:25:47;13.20;;;10.63;;
4756;SDS011;2392;52.578;13.426;2023-03-19T03:28:14;16.77;;;10.83;;
4756;SDS011;2392;52.578;13.426;2023-03-19T03:30:42;15.20;;;11.60;;
4756;SDS011;2392;52.578;13.426;2023-03-19T03:33:10;15.00;;;11.17;;
4756;SDS011;2392;52.578;13.426;2023-03-19T03:35:38;18.10;;;11.37;;
4756;SDS011;2392;52.578;13.426;2023-03-19T03:38:05;15.43;;;11.07;;
4756;SDS011;2392;52.578;13.426;2023-03-19T03:40:32;15.70;;;11.40;;
4756;SDS011;2392;52.578;13.426;2023-03-19T03:43:00;18.53;;;12.10;;
4756;SDS011;2392;52.578;13.426;2023-03-19T03:45:29;14.30;;;11.40;;
4756;SDS011;2392;52.578;13.426;2023-03-19T03:47:56;16.10;;;10.63;;
4756;SDS011;2392;52.578;13.426;2023-03-19T03:50:25;18.17;;;10.80;;
4756;SDS011;2392;52.578;13.426;2023-03-19T03:52:54;14.90;;;11.00;;
4756;SDS011;2392;52.578;13.426;2023-03-19T03:55:21;12.83;;;10.37;;
4756;SDS011;2392;52.578;13.426;2023-03-19T03:57:48;16.07;;;10.80;;
4756;SDS011;2392;52.578;13.426;2023-03-19T04:00:16;12.53;;;10.27;;
4756;SDS011;2392;52.578;13.426;2023-03-19T04:02:43;16.30;;;11.30;;
4756;SDS011;2392;52.578;13.426;2023-03-19T04:05:14;14.60;;;11.00;;
4756;SDS011;2392;52.578;13.426;2023-03-19T04:07:43;14.80;;;10.60;;
4756;SDS011;2392;52.578;13.426;2023-03-19T04:10:10;14.27;;;11.20;;
4756;SDS011;2392;52.578;13.426;2023-03-19T04:12:38;15.07;;;10.30;;
4756;SDS011;2392;52.578;13.426;2023-03-19T04:15:06;17.03;;;10.33;;
4756;SDS011;2392;52.578;13.426;2023-03-19T04:17:37;15.57;;;11.23;;
4756;SDS011;2392;52.578;13.426;2023-03-19T04:20:05;15.53;;;9.70;;
4756;SDS011;2392;52.578;13.426;2023-03-19T04:22:32;14.43;;;9.87;;
4756;SDS011;2392;52.578;13.426;2023-03-19T04:25:01;16.50;;;11.30;;
4756;SDS011;2392;52.578;13.426;2023-03-19T04:27:29;17.63;;;11.10;;
4756;SDS011;2392;52.578;13.426;2023-03-19T04:29:56;17.00;;;11.70;;
4756;SDS011;2392;52.578;13.426;2023-03-19T04:32:24;19.27;;;10.27;;
4756;SDS011;2392;52.578;13.426;2023-03-19T04:34:52;18.30;;;10.13;;
4756;SDS011;2392;52.578;13.426;2023-03-19T04:37:19;14.87;;;11.17;;
4756;SDS011;2392;52.578;13.426;2023-03-19T04:39:48;17.63;;;10.63;;
4756;SDS011;2392;52.578;13.426;2023-03-19T04:42:17;16.30;;;11.27;;
4756;SDS011;2392;52.578;13.426;2023-03-19T04:44:54;18.27;;;11.00;;
4756;SDS011;2392;52.578;13.426;2023-03-19T04:47:22;16.03;;;10.33;;
4756;SDS011;2392;52.578;13.426;2023-03-19T04:49:53;11.67;;;9.50;;
4756;SDS011;2392;52.578;13.426;2023-03-19T04:52:22;13.67;;;10.63;;
4756;SDS011;2392;52.578;13.426;2023-03-19T04:54:49;18.37;;;11.17;;
4756;SDS011;2392;52.578;13.426;2023-03-19T04:57:18;17.17;;;11.73;;
4756;SDS011;2392;52.578;13.426;2023-03-19T04:59:46;15.17;;;12.20;;
4756;SDS011;2392;52.578;13.426;2023-03-19T05:02:15;18.50;;;11.33;;
4756;SDS011;2392;52.578;13.426;2023-03-19T05:04:44;21.13;;;12.13;;
4756;SDS011;2392;52.578;13.426;2023-03-19T05:07:13;16.10;;;11.80;;
4756;SDS011;2392;52.578;13.426;2023-03-19T05:09:41;16.77;;;11.50;;
4756;SDS011;2392;52.578;13.426;2023-03-19T05:12:10;18.33;;;12.40;;
4756;SDS011;2392;52.578;13.426;2023-03-19T05:14:47;19.13;;;11.73;;
4756;SDS011;2392;52.578;13.426;2023-03-19T05:17:19;18.57;;;12.27;;
4756;SDS011;2392;52.578;13.426;2023-03-19T05:20:07;17.50;;;12.70;;
4756;SDS011;2392;52.578;13.426;2023-03-19T05:22:38;16.17;;;11.40;;
4756;SDS011;2392;52.578;13.426;2023-03-19T05:25:06;15.67;;;11.10;;
4756;SDS011;2392;52.578;13.426;2023-03-19T05:27:34;20.83;;;12.10;;
4756;SDS011;2392;52.578;13.426;2023-03-19T05:30:06;16.60;;;11.63;;
4756;SDS011;2392;52.578;13.426;2023-03-19T05:32:43;16.63;;;12.83;;
4756;SDS011;2392;52.578;13.426;2023-03-19T05:35:19;17.30;;;12.17;;
4756;SDS011;2392;52.578;13.426;2023-03-19T05:37:47;18.33;;;13.33;;
4756;SDS011;2392;52.578;13.426;2023-03-19T05:40:14;19.20;;;13.40;;
4756;SDS011;2392;52.578;13.426;2023-03-19T05:42:43;20.23;;;14.30;;
4756;SDS011;2392;52.578;13.426;2023-03-19T05:45:16;21.10;;;13.10;;
4756;SDS011;2392;52.578;13.426;2023-03-19T05:47:48;17.60;;;12.63;;
4756;SDS011;2392;52.578;13.426;2023-03-19T05:50:16;19.43;;;14.23;;
4756;SDS011;2392;52.578;13.426;2023-03-19T05:53:02;19.20;;;13.03;;
4756;SDS011;2392;52.578;13.426;2023-03-19T05:55:32;18.33;;;12.33;;
4756;SDS011;2392;52.578;13.426;2023-03-19T05:58:03;18.53;;;12.33;;
4756;SDS011;2392;52.578;13.426;2023-03-19T06:00:33;15.07;;;11.93;;
4756;SDS011;2392;52.578;13.426;2023-03-19T06:03:01;20.40;;;12.77;;
4756;SDS011;2392;52.578;13.426;2023-03-19T06:05:47;17.03;;;11.87;;
4756;SDS011;2392;52.578;13.426;2023-03-19T06:08:44;16.30;;;11.80;;
4756;SDS011;2392;52.578;13.426;2023-03-19T06:11:17;17.13;;;12.73;;
4756;SDS011;2392;52.578;13.426;2023-03-19T06:13:50;17.33;;;11.20;;
4756;SDS011;2392;52.578;13.426;2023-03-19T06:16:18;17.40;;;11.43;;
4756;SDS011;2392;52.578;13.426;2023-03-19T06:18:50;14.80;;;11.03;;
4756;SDS011;2392;52.578;13.426;2023-03-19T06:21:18;15.10;;;11.07;;
4756;SDS011;2392;52.578;13.426;2023-03-19T06:23:45;14.00;;;10.37;;
4756;SDS011;2392;52.578;13.426;2023-03-19T06:26:16;11.77;;;9.63;;
4756;SDS011;2392;52.578;13.426;2023-03-19T06:28:52;22.80;;;11.10;;
4756;SDS011;2392;52.578;13.426;2023-03-19T06:31:21;11.90;;;9.80;;
4756;SDS011;2392;52.578;13.426;2023-03-19T06:33:51;13.37;;;9.20;;
4756;SDS011;2392;52.578;13.426;2023-03-19T06:36:19;12.30;;;8.70;;
4756;SDS011;2392;52.578;13.426;2023-03-19T06:38:47;10.67;;;8.60;;
4756;SDS011;2392;52.578;13.426;2023-03-19T06:41:14;12.70;;;9.80;;
4756;SDS011;2392;52.578;13.426;2023-03-19T06:43:41;16.47;;;10.43;;
4756;SDS011;2392;52.578;13.426;2023-03-19T06:46:08;17.50;;;11.43;;
4756;SDS011;2392;52.578;13.426;2023-03-19T06:48:36;12.60;;;10.40;;
4756;SDS011;2392;52.578;13.426;2023-03-19T06:51:04;17.50;;;10.03;;
4756;SDS011;2392;52.578;13.426;2023-03-19T06:53:31;13.93;;;9.23;;
4756;SDS011;2392;52.578;13.426;2023-03-19T06:55:58;10.03;;;9.13;;
4756;SDS011;2392;52.578;13.426;2023-03-19T06:58:25;10.80;;;9.80;;
4756;SDS011;2392;52.578;13.426;2023-03-19T07:00:53;11.83;;;9.20;;
4756;SDS011;2392;52.578;13.426;2023-03-19T07:03:20;12.13;;;9.63;;
4756;SDS011;2392;52.578;13.426;2023-03-19T07:05:50;16.10;;;10.00;;
4756;SDS011;2392;52.578;13.426;2023-03-19T07:08:17;11.77;;;9.23;;
4756;SDS011;2392;52.578;13.426;2023-03-19T07:10:44;12.27;;;10.13;;
4756;SDS011;2392;52.578;13.426;2023-03-19T07:13:11;13.40;;;9.23;;
4756;SDS011;2392;52.578;13.426;2023-03-19T07:15:38;12.30;;;9.33;;
4756;SDS011;2392;52.578;13.426;2023-03-19T07:18:05;12.57;;;10.03;;
4756;SDS011;2392;52.578;13.426;2023-03-19T07:20:32;19.30;;;11.23;;
4756;SDS011;2392;52.578;13.426;2023-03-19T07:23:00;12.53;;;10.27;;
4756;SDS011;2392;52.578;13.426;2023-03-19T07:25:27;14.07;;;10.77;;
4756;SDS011;2392;52.578;13.426;2023-03-19T07:27:54;10.63;;;9.53;;
4756;SDS011;2392;52.578;13.426;2023-03-19T07:30:21;17.07;;;10.67;;
4756;SDS011;2392;52.578;13.426;2023-03-19T07:32:49;13.13;;;11.03;;
4756;SDS011;2392;52.578;13.426;2023-03-19T07:35:16;17.30;;;11.97;;
4756;SDS011;2392;52.578;13.426;2023-03-19T07:37:43;15.50;;;11.00;;
4756;SDS011;2392;52.578;13.426;2023-03-19T07:40:12;13.67;;;11.00;;
4756;SDS011;2392;52.578;13.426;2023-03-19T07:42:39;13.57;;;11.47;;
4756;SDS011;2392;52.578;13.426;2023-03-19T07:45:07;16.00;;;11.80;;
4756;SDS011;2392;52.578;13.426;2023-03-19T07:47:34;15.57;;;10.40;;
4756;SDS011;2392;52.578;13.426;2023-03-19T07:50:01;11.03;;;9.87;;
4756;SDS011;2392;52.578;13.426;2023-03-19T07:52:29;9.83;;;8.93;;
4756;SDS011;2392;52.578;13.426;2023-03-19T07:54:56;9.33;;;8.20;;
4756;SDS011;2392;52.578;13.426;2023-03-19T07:57:24;9.70;;;8.70;;
4756;SDS011;2392;52.578;13.426;2023-03-19T07:59:51;13.43;;;9.87;;
4756;SDS011;2392;52.578;13.426;2023-03-19T08:02:18;13.70;;;10.10;;
4756;SDS011;2392;52.578;13.426;2023-03-19T08:04:46;14.20;;;10.40;;
4756;SDS011;2392;52.578;13.426;2023-03-19T08:07:12;19.20;;;11.60;;
4756;SDS011;2392;52.578;13.426;2023-03-19T08:09:40;14.07;;;10.40;;
4756;SDS011;2392;52.578;13.426;2023-03-19T08:12:07;12.20;;;10.90;;
4756;SDS011;2392;52.578;13.426;2023-03-19T08:14:35;13.77;;;10.83;;
4756;SDS011;2392;52.578;13.426;2023-03-19T08:17:02;16.73;;;11.20;;
4756;SDS011;2392;52.578;13.426;2023-03-19T08:19:29;13.67;;;10.27;;
4756;SDS011;2392;52.578;13.426;2023-03-19T08:21:56;11.77;;;9.93;;
4756;SDS011;2392;52.578;13.426;2023-03-19T08:24:23;20.37;;;11.23;;
4756;SDS011;2392;52.578;13.426;2023-03-19T08:26:50;17.33;;;11.07;;
4756;SDS011;2392;52.578;13.426;2023-03-19T08:29:17;16.60;;;11.47;;
4756;SDS011;2392;52.578;13.426;2023-03-19T08:31:46;14.60;;;11.20;;
4756;SDS011;2392;52.578;13.426;2023-03-19T08:34:13;17.50;;;13.27;;
4756;SDS011;2392;52.578;13.426;2023-03-19T08:36:40;16.13;;;12.20;;
4756;SDS011;2392;52.578;13.426;2023-03-19T08:39:07;14.23;;;12.00;;
4756;SDS011;2392;52.578;13.426;2023-03-19T08:41:34;17.10;;;14.07;;
4756;SDS011;2392;52.578;13.426;2023-03-19T08:44:01;21.40;;;13.50;;
4756;SDS011;2392;52.578;13.426;2023-03-19T08:46:29;17.73;;;15.13;;
4756;SDS011;2392;52.578;13.426;2023-03-19T08:48:57;22.17;;;15.40;;
4756;SDS011;2392;52.578;13.426;2023-03-19T08:51:24;20.23;;;15.23;;
4756;SDS011;2392;52.578;13.426;2023-03-19T08:53:52;19.87;;;15.80;;
4756;SDS011;2392;52.578;13.426;2023-03-19T08:56:19;19.87;;;15.80;;
4756;SDS011;2392;52.578;13.426;2023-03-19T08:58:47;19.87;;;14.73;;
4756;SDS011;2392;52.578;13.426;2023-03-19T09:01:14;22.30;;;15.30;;
4756;SDS011;2392;52.578;13.426;2023-03-19T09:03:41;21.80;;;15.80;;
4756;SDS011;2392;52.578;13.426;2023-03-19T09:06:11;20.20;;;14.20;;
4756;SDS011;2392;52.578;13.426;2023-03-19T09:08:39;19.50;;;14.77;;
4756;SDS011;2392;52.578;13.426;2023-03-19T09:11:07;21.10;;;16.20;;
4756;SDS011;2392;52.578;13.426;2023-03-19T09:13:35;18.17;;;15.30;;
4756;SDS011;2392;52.578;13.426;2023-03-19T09:16:03;22.00;;;15.27;;
4756;SDS011;2392;52.578;13.426;2023-03-19T09:18:30;21.00;;;14.87;;
4756;SDS011;2392;52.578;13.426;2023-03-19T09:20:58;19.57;;;14.60;;
4756;SDS011;2392;52.578;13.426;2023-03-19T09:23:26;18.00;;;14.03;;
4756;SDS011;2392;52.578;13.426;2023-03-19T09:25:53;17.03;;;13.90;;
4756;SDS011;2392;52.578;13.426;2023-03-19T09:28:20;16.47;;;14.17;;
4756;SDS011;2392;52.578;13.426;2023-03-19T09:30:48;18.03;;;14.03;;
4756;SDS011;2392;52.578;13.426;2023-03-19T09:33:16;17.03;;;13.33;;
4756;SDS011;2392;52.578;13.426;2023-03-19T09:35:47;15.63;;;13.20;;
4756;SDS011;2392;52.578;13.426;2023-03-19T09:38:15;18.07;;;13.50;;
4756;SDS011;2392;52.578;13.426;2023-03-19T09:40:44;16.03;;;13.13;;
4756;SDS011;2392;52.578;13.426;2023-03-19T09:43:25;17.07;;;13.00;;
4756;SDS011;2392;52.578;13.426;2023-03-19T09:46:07;16.33;;;12.83;;
4756;SDS011;2392;52.578;13.426;2023-03-19T09:48:39;18.23;;;12.90;;
4756;SDS011;2392;52.578;13.426;2023-03-19T09:51:13;15.80;;;13.20;;
4756;SDS011;2392;52.578;13.426;2023-03-19T09:53:48;17.63;;;12.77;;
4756;SDS011;2392;52.578;13.426;2023-03-19T09:56:20;16.83;;;11.97;;
4756;SDS011;2392;52.578;13.426;2023-03-19T09:58:48;19.87;;;12.80;;
4756;SDS011;2392;52.578;13.426;2023-03-19T10:01:20;14.07;;;12.47;;
4756;SDS011;2392;52.578;13.426;2023-03-19T10:03:55;14.63;;;11.67;;
4756;SDS011;2392;52.578;13.426;2023-03-19T10:06:32;18.50;;;13.80;;
4756;SDS011;2392;52.578;13.426;2023-03-19T10:09:10;12.47;;;11.13;;
4756;SDS011;2392;52.578;13.426;2023-03-19T10:12:01;15.23;;;12.00;;
4756;SDS011;2392;52.578;13.426;2023-03-19T10:14:41;12.27;;;10.77;;
4756;SDS011;2392;52.578;13.426;2023-03-19T10:17:29;19.33;;;10.47;;
4756;SDS011;2392;52.578;13.426;2023-03-19T10:20:00;11.90;;;9.63;;
4756;SDS011;2392;52.578;13.426;2023-03-19T10:22:31;11.30;;;9.20;;
4756;SDS011;2392;52.578;13.426;2023-03-19T10:25:03;12.60;;;9.27;;
4756;SDS011;2392;52.578;13.426;2023-03-19T10:27:37;15.73;;;10.23;;
4756;SDS011;2392;52.578;13.426;2023-03-19T10:30:15;10.03;;;8.47;;
4756;SDS011;2392;52.578;13.426;2023-03-19T10:32:45;13.80;;;9.40;;
4756;SDS011;2392;52.578;13.426;2023-03-19T10:35:17;9.53;;;8.53;;
4756;SDS011;2392;52.578;13.426;2023-03-19T10:37:47;11.03;;;9.10;;
4756;SDS011;2392;52.578;13.426;2023-03-19T10:40:17;11.10;;;9.50;;
4756;SDS011;2392;52.578;13.426;2023-03-19T10:42:59;11.57;;;10.03;;
4756;SDS011;2392;52.578;13.426;2023-03-19T10:45:31;14.00;;;8.63;;
4756;SDS011;2392;52.578;13.426;2023-03-19T10:48:00;15.13;;;9.77;;
4756;SDS011;2392;52.578;13.426;2023-03-19T10:50:29;12.53;;;8.17;;
4756;SDS011;2392;52.578;13.426;2023-03-19T10:53:02;10.33;;;9.23;;
4756;SDS011;2392;52.578;13.426;2023-03-19T10:55:32;9.47;;;8.03;;
4756;SDS011;2392;52.578;13.426;2023-03-19T10:58:05;12.77;;;9.63;;
4756;SDS011;2392;52.578;13.426;2023-03-19T11:00:40;10.40;;;8.40;;
4756;SDS011;2392;52.578;13.426;2023-03-19T11:03:25;11.53;;;8.70;;
4756;SDS011;2392;52.578;13.426;2023-03-19T11:06:02;9.00;;;8.10;;
4756;SDS011;2392;52.578;13.426;2023-03-19T11:08:41;9.80;;;8.53;;
4756;SDS011;2392;52.578;13.426;2023-03-19T11:11:21;9.63;;;8.63;;
4756;SDS011;2392;52.578;13.426;2023-03-19T11:13:50;9.23;;;7.87;;
4756;SDS011;2392;52.578;13.426;2023-03-19T11:16:17;12.10;;;8.70;;
4756;SDS011;2392;52.578;13.426;2023-03-19T11:18:46;10.03;;;8.27;;
4756;SDS011;2392;52.578;13.426;2023-03-19T11:21:21;10.20;;;9.20;;
4756;SDS011;2392;52.578;13.426;2023-03-19T11:23:51;9.53;;;8.37;;
4756;SDS011;2392;52.578;13.426;2023-03-19T11:26:23;8.73;;;7.83;;
4756;SDS011;2392;52.578;13.426;2023-03-19T11:28:54;11.30;;;8.63;;
4756;SDS011;2392;52.578;13.426;2023-03-19T11:31:28;9.93;;;8.93;;
4756;SDS011;2392;52.578;13.426;2023-03-19T11:34:07;10.40;;;9.30;;
4756;SDS011;2392;52.578;13.426;2023-03-19T11:36:50;9.20;;;8.10;;
4756;SDS011;2392;52.578;13.426;2023-03-19T11:39:26;9.70;;;8.70;;
4756;SDS011;2392;52.578;13.426;2023-03-19T11:42:04;9.33;;;7.97;;
4756;SDS011;2392;52.578;13.426;2023-03-19T11:44:58;8.77;;;6.93;;
4756;SDS011;2392;52.578;13.426;2023-03-19T11:47:34;8.17;;;6.80;;
4756;SDS011;2392;52.578;13.426;2023-03-19T11:50:14;7.77;;;7.07;;
4756;SDS011;2392;52.578;13.426;2023-03-19T11:53:02;11.80;;;7.50;;
4756;SDS011;2392;52.578;13.426;2023-03-19T11:55:40;8.23;;;6.83;;
4756;SDS011;2392;52.578;13.426;2023-03-19T12:01:07;8.03;;;7.10;;
4756;SDS011;2392;52.578;13.426;2023-03-19T12:03:45;8.60;;;6.40;;
4756;SDS011;2392;52.578;13.426;2023-03-19T12:06:35;7.30;;;6.23;;
4756;SDS011;2392;52.578;13.426;2023-03-19T12:09:12;6.47;;;5.87;;
4756;SDS011;2392;52.578;13.426;2023-03-19T12:11:51;8.63;;;5.90;;
4756;SDS011;2392;52.578;13.426;2023-03-19T12:14:23;8.50;;;6.50;;
4756;SDS011;2392;52.578;13.426;2023-03-19T12:17:05;9.10;;;6.63;;
4756;SDS011;2392;52.578;13.426;2023-03-19T12:19:59;9.00;;;8.10;;
4756;SDS011;2392;52.578;13.426;2023-03-19T12:22:39;8.47;;;6.03;;
4756;SDS011;2392;52.578;13.426;2023-03-19T12:25:24;27.13;;;16.10;;
4756;SDS011;2392;52.578;13.426;2023-03-19T12:27:59;7.27;;;6.30;;
4756;SDS011;2392;52.578;13.426;2023-03-19T12:30:36;10.27;;;6.83;;
4756;SDS011;2392;52.578;13.426;2023-03-19T12:33:15;8.30;;;6.47;;
4756;SDS011;2392;52.578;13.426;2023-03-19T12:36:03;8.40;;;7.47;;
4756;SDS011;2392;52.578;13.426;2023-03-19T12:38:37;9.87;;;7.60;;
4756;SDS011;2392;52.578;13.426;2023-03-19T12:41:10;9.13;;;6.90;;
4756;SDS011;2392;52.578;13.426;2023-03-19T12:43:47;9.57;;;7.20;;
4756;SDS011;2392;52.578;13.426;2023-03-19T12:46:22;7.03;;;6.40;;
4756;SDS011;2392;52.578;13.426;2023-03-19T12:49:00;7.03;;;6.43;;
4756;SDS011;2392;52.578;13.426;2023-03-19T12:51:34;10.70;;;6.47;;
4756;SDS011;2392;52.578;13.426;2023-03-19T12:54:07;7.60;;;6.90;;
4756;SDS011;2392;52.578;13.426;2023-03-19T12:56:39;8.47;;;6.73;;
4756;SDS011;2392;52.578;13.426;2023-03-19T12:59:25;7.97;;;6.93;;
4756;SDS011;2392;52.578;13.426;2023-03-19T13:01:58;7.33;;;6.63;;
4756;SDS011;2392;52.578;13.426;2023-03-19T13:04:32;11.63;;;7.60;;
4756;SDS011;2392;52.578;13.426;2023-03-19T13:07:07;9.47;;;7.37;;
4756;SDS011;2392;52.578;13.426;2023-03-19T13:09:39;9.40;;;6.57;;
4756;SDS011;2392;52.578;13.426;2023-03-19T13:12:12;7.80;;;6.97;;
4756;SDS011;2392;52.578;13.426;2023-03-19T13:14:54;10.00;;;7.53;;
4756;SDS011;2392;52.578;13.426;2023-03-19T13:17:35;8.07;;;6.97;;
4756;SDS011;2392;52.578;13.426;2023-03-19T13:20:18;8.57;;;7.67;;
4756;SDS011;2392;52.578;13.426;2023-03-19T13:22:53;7.97;;;6.90;;
4756;SDS011;2392;52.578;13.426;2023-03-19T13:25:26;7.07;;;6.37;;
4756;SDS011;2392;52.578;13.426;2023-03-19T13:27:58;9.10;;;7.40;;
4756;SDS011;2392;52.578;13.426;2023-03-19T13:30:28;8.90;;;6.80;;
4756;SDS011;2392;52.578;13.426;2023-03-19T13:33:02;10.23;;;6.67;;
4756;SDS011;2392;52.578;13.426;2023-03-19T13:35:36;13.00;;;7.70;;
4756;SDS011;2392;52.578;13.426;2023-03-19T13:38:09;8.80;;;7.90;;
4756;SDS011;2392;52.578;13.426;2023-03-19T13:40:44;8.20;;;7.40;;
4756;SDS011;2392;52.578;13.426;2023-03-19T13:49:08;10.00;;;7.83;;
4756;SDS011;2392;52.578;13.426;2023-03-19T13:51:59;11.17;;;8.63;;
4756;SDS011;2392;52.578;13.426;2023-03-19T13:54:33;9.13;;;8.23;;
4756;SDS011;2392;52.578;13.426;2023-03-19T13:57:15;9.30;;;8.30;;
4756;SDS011;2392;52.578;13.426;2023-03-19T13:59:45;9.53;;;8.20;;
4756;SDS011;2392;52.578;13.426;2023-03-19T14:05:18;10.70;;;8.43;;
4756;SDS011;2392;52.578;13.426;2023-03-19T14:07:59;9.10;;;7.53;;
4756;SDS011;2392;52.578;13.426;2023-03-19T14:10:27;9.53;;;8.00;;
4756;SDS011;2392;52.578;13.426;2023-03-19T14:13:03;10.47;;;9.33;;
4756;SDS011;2392;52.578;13.426;2023-03-19T14:15:32;12.50;;;8.77;;
4756;SDS011;2392;52.578;13.426;2023-03-19T14:18:09;9.43;;;8.53;;
4756;SDS011;2392;52.578;13.426;2023-03-19T14:20:43;8.43;;;7.53;;
4756;SDS011;2392;52.578;13.426;2023-03-19T14:23:27;9.50;;;8.60;;
4756;SDS011;2392;52.578;13.426;2023-03-19T14:25:58;8.40;;;7.60;;
4756;SDS011;2392;52.578;13.426;2023-03-19T14:28:46;9.13;;;7.90;;
4756;SDS011;2392;52.578;13.426;2023-03-19T14:31:23;10.30;;;7.70;;
4756;SDS011;2392;52.578;13.426;2023-03-19T14:33:57;9.70;;;7.37;;
4756;SDS011;2392;52.578;13.426;2023-03-19T14:36:27;9.80;;;8.73;;
4756;SDS011;2392;52.578;13.426;2023-03-19T14:38:58;10.40;;;9.00;;
4756;SDS011;2392;52.578;13.426;2023-03-19T14:41:31;9.43;;;7.70;;
4756;SDS011;2392;52.578;13.426;2023-03-19T14:44:18;7.90;;;7.10;;
4756;SDS011;2392;52.578;13.426;2023-03-19T14:50:26;9.40;;;8.33;;
4756;SDS011;2392;52.578;13.426;2023-03-19T14:53:21;9.03;;;7.83;;
4756;SDS011;2392;52.578;13.426;2023-03-19T14:55:55;9.60;;;8.60;;
4756;SDS011;2392;52.578;13.426;2023-03-19T14:58:35;9.83;;;7.57;;
4756;SDS011;2392;52.578;13.426;2023-03-19T15:01:04;9.10;;;8.03;;
4756;SDS011;2392;52.578;13.426;2023-03-19T15:03:33;12.33;;;9.47;;
4756;SDS011;2392;52.578;13.426;2023-03-19T15:06:03;13.17;;;8.40;;
4756;SDS011;2392;52.578;13.426;2023-03-19T15:08:33;10.60;;;8.07;;
4756;SDS011;2392;52.578;13.426;2023-03-19T15:16:59;10.37;;;7.90;;
4756;SDS011;2392;52.578;13.426;2023-03-19T15:19:34;9.13;;;7.37;;
4756;SDS011;2392;52.578;13.426;2023-03-19T15:22:04;12.07;;;8.10;;
4756;SDS011;2392;52.578;13.426;2023-03-19T15:24:37;10.43;;;8.00;;
4756;SDS011;2392;52.578;13.426;2023-03-19T15:27:16;10.90;;;8.40;;
4756;SDS011;2392;52.578;13.426;2023-03-19T15:29:44;9.93;;;7.90;;